createdAt,value
2023-01-25T00:01:18.321Z,102569.20
2023-01-25T00:04:03.436Z,102565.39
2023-01-25T00:06:48.537Z,102569.15
2023-01-25T00:09:33.799Z,102564.89
2023-01-25T00:12:18.655Z,102558.73
2023-01-25T00:15:04.149Z,102551.39
2023-01-25T00:17:49.091Z,102550.73
2023-01-25T00:20:34.008Z,102547.52
2023-01-25T00:23:18.997Z,102543.88
2023-01-25T00:26:03.941Z,102545.60
2023-01-25T00:28:53.820Z,102545.34
2023-01-25T00:31:48.201Z,102545.83
2023-01-25T00:34:51.512Z,102542.15
2023-01-25T00:37:39.328Z,102544.80
2023-01-25T00:40:24.486Z,102536.02
2023-01-25T00:43:09.858Z,102530.67
2023-01-25T00:46:01.513Z,102524.45
2023-01-25T00:48:46.865Z,102523.11
2023-01-25T00:51:32.445Z,102521.84
2023-01-25T00:54:18.038Z,102517.29
2023-01-25T00:57:03.497Z,102519.36
2023-01-25T00:59:48.759Z,102519.73
2023-01-25T01:02:33.733Z,102518.30
2023-01-25T01:05:18.522Z,102521.74
2023-01-25T01:08:03.764Z,102519.26
2023-01-25T01:10:48.991Z,102509.37
2023-01-25T01:13:34.226Z,102500.46
2023-01-25T01:16:19.535Z,102495.58
2023-01-25T01:19:04.313Z,102489.18
2023-01-25T01:21:49.231Z,102481.94
2023-01-25T01:24:34.321Z,102478.63
2023-01-25T01:27:19.190Z,102475.66
2023-01-25T01:30:05.295Z,102477.29
2023-01-25T01:32:50.744Z,102476.30
2023-01-25T01:35:35.723Z,102475.86
2023-01-25T01:38:21.067Z,102469.38
2023-01-25T01:41:06.363Z,102463.51
2023-01-25T01:43:52.508Z,102463.95
2023-01-25T01:46:41.232Z,102464.40
2023-01-25T01:49:27.519Z,102462.98
2023-01-25T01:52:15.847Z,102460.98
2023-01-25T01:55:07.870Z,102461.34
2023-01-25T01:57:57.364Z,102458.89
2023-01-25T02:00:42.566Z,102455.95
2023-01-25T02:03:28.404Z,102452.34
2023-01-25T02:06:16.511Z,102448.26
2023-01-25T02:09:01.322Z,102450.52
2023-01-25T02:11:46.304Z,102447.91
2023-01-25T02:14:32.609Z,102446.14
2023-01-25T02:17:27.781Z,102443.51
2023-01-25T02:20:37.879Z,102443.48
2023-01-25T02:23:49.833Z,102446.02
2023-01-25T02:26:35.023Z,102446.67
2023-01-25T02:29:23.363Z,102446.64
2023-01-25T02:32:08.085Z,102446.20
2023-01-25T02:34:52.945Z,102445.59
2023-01-25T02:37:37.958Z,102444.30
2023-01-25T02:40:22.969Z,102446.81
2023-01-25T02:43:07.945Z,102443.52
2023-01-25T02:45:58.090Z,102441.35
2023-01-25T02:48:42.839Z,102445.15
2023-01-25T02:51:30.054Z,102442.47
2023-01-25T02:54:16.805Z,102437.22
2023-01-25T02:57:02.127Z,102435.27
2023-01-25T02:59:47.083Z,102433.11
2023-01-25T03:02:31.957Z,102435.55
2023-01-25T03:05:16.933Z,102435.37
2023-01-25T03:08:01.713Z,102436.66
2023-01-25T03:10:46.844Z,102435.73
2023-01-25T03:13:32.059Z,102431.55
2023-01-25T03:16:17.012Z,102422.95
2023-01-25T03:19:01.849Z,102420.00
2023-01-25T03:21:47.063Z,102417.59
2023-01-25T03:24:32.053Z,102422.08
2023-01-25T03:27:17.883Z,102420.82
2023-01-25T03:30:03.603Z,102415.23
2023-01-25T03:32:48.527Z,102416.48
2023-01-25T03:35:33.377Z,102414.58
2023-01-25T03:38:19.913Z,102412.54
2023-01-25T03:41:05.604Z,102408.84
2023-01-25T03:43:50.636Z,102404.29
2023-01-25T03:46:35.512Z,102404.98
2023-01-25T03:49:20.539Z,102403.81
2023-01-25T03:52:05.519Z,102405.95
2023-01-25T03:54:51.011Z,102404.27
2023-01-25T03:57:35.867Z,102402.23
2023-01-25T04:00:21.058Z,102397.76
2023-01-25T04:03:05.854Z,102397.19
2023-01-25T04:05:52.832Z,102392.83
2023-01-25T04:08:38.125Z,102389.46
2023-01-25T04:11:23.336Z,102387.98
2023-01-25T04:14:09.476Z,102385.80
2023-01-25T04:16:54.963Z,102385.14
2023-01-25T04:19:40.151Z,102383.69
2023-01-25T04:22:25.225Z,102380.36
2023-01-25T04:25:10.560Z,102379.94
2023-01-25T04:27:55.595Z,102374.34
2023-01-25T04:30:40.330Z,102369.92
2023-01-25T04:33:25.224Z,102372.11
2023-01-25T04:36:10.208Z,102369.89
2023-01-25T04:38:54.962Z,102363.61
2023-01-25T04:41:39.874Z,102358.77
2023-01-25T04:44:24.811Z,102358.17
2023-01-25T04:47:09.663Z,102359.73
2023-01-25T04:49:54.652Z,102358.63
2023-01-25T04:52:39.771Z,102361.77
2023-01-25T04:55:24.705Z,102357.68
2023-01-25T04:58:09.759Z,102360.55
2023-01-25T05:00:58.920Z,102357.65
2023-01-25T05:03:43.955Z,102354.87
2023-01-25T05:06:28.912Z,102351.27
2023-01-25T05:09:14.569Z,102348.02
2023-01-25T05:11:59.929Z,102348.76
2023-01-25T05:14:44.698Z,102346.89
2023-01-25T05:17:29.597Z,102347.15
2023-01-25T05:20:14.646Z,102345.89
2023-01-25T05:22:59.411Z,102341.45
2023-01-25T05:26:03.075Z,102337.87
2023-01-25T05:28:48.356Z,102337.00
2023-01-25T05:31:33.445Z,102333.23
2023-01-25T05:34:18.378Z,102333.30
2023-01-25T05:37:04.389Z,102334.36
2023-01-25T05:39:49.223Z,102330.25
2023-01-25T05:42:34.117Z,102328.25
2023-01-25T05:45:19.066Z,102324.58
2023-01-25T05:48:04.114Z,102322.82
2023-01-25T05:50:48.851Z,102320.65
2023-01-25T05:53:33.800Z,102318.48
2023-01-25T05:56:18.749Z,102313.52
2023-01-25T05:59:03.781Z,102316.39
2023-01-25T06:01:48.612Z,102310.52
2023-01-25T06:04:33.529Z,102313.89
2023-01-25T06:07:18.513Z,102314.63
2023-01-25T06:10:04.487Z,102312.20
2023-01-25T06:12:50.104Z,102307.70
2023-01-25T06:15:35.778Z,102300.30
2023-01-25T06:18:21.398Z,102299.26
2023-01-25T06:21:06.539Z,102296.16
2023-01-25T06:23:51.739Z,102295.31
2023-01-25T06:26:36.651Z,102299.59
2023-01-25T06:29:21.617Z,102305.77
2023-01-25T06:32:06.740Z,102308.28
2023-01-25T06:34:51.782Z,102308.80
2023-01-25T06:37:37.000Z,102310.44
2023-01-25T06:40:22.087Z,102310.34
2023-01-25T06:43:08.400Z,102307.79
2023-01-25T06:46:00.272Z,102305.17
2023-01-25T06:48:45.722Z,102299.30
2023-01-25T06:51:30.663Z,102298.89
2023-01-25T06:54:15.613Z,102299.12
2023-01-25T06:57:00.509Z,102298.91
2023-01-25T06:59:45.263Z,102294.96
2023-01-25T07:02:30.318Z,102294.80
2023-01-25T07:05:15.382Z,102292.29
2023-01-25T07:08:00.804Z,102290.49
2023-01-25T07:10:52.165Z,102286.57
2023-01-25T07:13:37.386Z,102277.98
2023-01-25T07:16:22.441Z,102279.98
2023-01-25T07:19:10.442Z,102280.91
2023-01-25T07:21:55.752Z,102279.73
2023-01-25T07:24:40.873Z,102277.14
2023-01-25T07:27:25.989Z,102278.08
2023-01-25T07:30:11.384Z,102277.56
2023-01-25T07:32:58.690Z,102275.88
2023-01-25T07:35:43.821Z,102270.85
2023-01-25T07:38:28.910Z,102268.43
2023-01-25T07:41:15.732Z,102268.92
2023-01-25T07:44:00.778Z,102265.17
2023-01-25T07:46:45.857Z,102267.40
2023-01-25T07:49:30.785Z,102263.91
2023-01-25T07:52:15.869Z,102259.28
2023-01-25T07:55:01.194Z,102259.14
2023-01-25T07:57:45.987Z,102262.90
2023-01-25T08:00:30.901Z,102260.11
2023-01-25T08:03:15.973Z,102257.14
2023-01-25T08:06:04.464Z,102256.22
2023-01-25T08:08:49.715Z,102250.60
2023-01-25T08:11:34.851Z,102242.86
2023-01-25T08:14:19.805Z,102237.05
2023-01-25T08:17:04.991Z,102238.16
2023-01-25T08:19:50.075Z,102239.47
2023-01-25T08:22:35.435Z,102236.23
2023-01-25T08:25:20.147Z,102239.09
2023-01-25T08:28:05.120Z,102242.64
2023-01-25T08:30:57.253Z,102244.61
2023-01-25T08:33:45.338Z,102238.90
2023-01-25T08:36:30.124Z,102242.91
2023-01-25T08:39:17.094Z,102235.67
2023-01-25T08:42:02.085Z,102237.40
2023-01-25T08:44:46.922Z,102237.97
2023-01-25T08:47:31.762Z,102237.09
2023-01-25T08:50:16.646Z,102236.25
2023-01-25T08:53:01.538Z,102229.67
2023-01-25T08:55:46.501Z,102217.33
2023-01-25T08:58:32.589Z,102209.54
2023-01-25T09:01:18.871Z,102200.55
2023-01-25T09:04:03.972Z,102193.52
2023-01-25T09:06:49.231Z,102188.17
2023-01-25T09:09:34.320Z,102184.51
2023-01-25T09:12:18.830Z,102186.83
2023-01-25T09:15:04.113Z,102186.65
2023-01-25T09:17:50.879Z,102191.27
2023-01-25T09:20:38.747Z,102194.88
2023-01-25T09:23:23.833Z,102193.48
2023-01-25T09:26:08.758Z,102197.13
2023-01-25T09:28:53.988Z,102195.59
2023-01-25T09:31:39.622Z,102193.81
2023-01-25T09:34:24.712Z,102190.98
2023-01-25T09:37:09.567Z,102184.38
2023-01-25T09:39:54.438Z,102183.91
2023-01-25T09:42:55.534Z,102177.13
2023-01-25T09:45:40.716Z,102172.17
2023-01-25T09:48:33.838Z,102163.78
2023-01-25T09:51:58.559Z,102160.34
2023-01-25T09:54:47.370Z,102154.95
2023-01-25T09:57:36.601Z,102143.63
2023-01-25T10:00:23.686Z,102135.84
2023-01-25T10:03:18.014Z,102138.29
2023-01-25T10:06:03.363Z,102137.79
2023-01-25T10:09:05.175Z,102130.58
2023-01-25T10:11:50.385Z,102127.89
2023-01-25T10:14:35.303Z,102135.73
2023-01-25T10:17:31.675Z,102131.98
2023-01-25T10:20:33.176Z,102127.65
2023-01-25T10:23:33.457Z,102124.38
2023-01-25T10:26:31.536Z,102122.20
2023-01-25T10:29:20.639Z,102116.52
2023-01-25T10:32:22.011Z,102110.03
2023-01-25T10:35:25.673Z,102114.70
2023-01-25T10:38:31.754Z,102114.58
2023-01-25T10:41:43.772Z,102113.33
2023-01-25T10:44:28.907Z,102110.23
2023-01-25T10:47:34.900Z,102114.05
2023-01-25T10:50:38.176Z,102114.73
2023-01-25T10:53:33.744Z,102104.96
2023-01-25T10:56:25.556Z,102101.89
2023-01-25T10:59:18.576Z,102099.42
2023-01-25T11:02:25.230Z,102093.86
2023-01-25T11:05:25.636Z,102087.63
2023-01-25T11:08:24.876Z,102081.89
2023-01-25T11:11:32.424Z,102076.73
2023-01-25T11:14:18.051Z,102077.11
2023-01-25T11:17:05.162Z,102074.50
2023-01-25T11:20:24.421Z,102073.65
2023-01-25T11:23:35.750Z,102070.09
2023-01-25T11:26:20.926Z,102061.59
2023-01-25T11:29:20.553Z,102047.87
2023-01-25T11:32:22.034Z,102036.74
2023-01-25T11:35:26.212Z,102032.96
2023-01-25T11:38:17.696Z,102020.37
2023-01-25T11:41:23.623Z,102017.34
2023-01-25T11:44:26.293Z,102005.89
2023-01-25T11:47:40.908Z,102005.16
2023-01-25T11:50:46.461Z,102000.19
2023-01-25T11:53:49.642Z,101991.06
2023-01-25T11:56:56.290Z,101983.74
2023-01-25T12:00:03.197Z,101977.80
2023-01-25T12:03:09.371Z,101975.30
2023-01-25T12:06:19.369Z,101971.44
2023-01-25T12:09:04.254Z,101963.87
2023-01-25T12:12:20.163Z,101955.52
2023-01-25T12:15:16.106Z,101950.33
2023-01-25T12:18:24.200Z,101943.05
2023-01-25T12:21:30.629Z,101939.77
2023-01-25T12:24:22.297Z,101935.03
2023-01-25T12:27:19.326Z,101933.40
2023-01-25T12:30:15.640Z,101924.35
2023-01-25T12:33:14.666Z,101921.20
2023-01-25T12:36:13.253Z,101913.30
2023-01-25T12:39:03.262Z,101906.30
2023-01-25T12:41:53.528Z,101904.23
2023-01-25T12:44:43.011Z,101899.11
2023-01-25T12:47:35.539Z,101897.11
2023-01-25T12:50:32.558Z,101893.80
2023-01-25T12:53:21.466Z,101892.61
2023-01-25T12:56:08.846Z,101890.27
2023-01-25T12:59:01.746Z,101883.77
2023-01-25T13:02:08.513Z,101883.67
2023-01-25T13:05:13.742Z,101880.88
2023-01-25T13:08:30.747Z,101879.39
2023-01-25T13:11:33.133Z,101879.48
2023-01-25T13:14:26.402Z,101875.43
2023-01-25T13:17:31.766Z,101873.55
2023-01-25T13:20:42.223Z,101873.52
2023-01-25T13:23:45.307Z,101868.61
2023-01-25T13:26:36.646Z,101864.33
2023-01-25T13:29:39.609Z,101857.61
2023-01-25T13:32:24.615Z,101854.76
2023-01-25T13:35:39.323Z,101852.54
2023-01-25T13:38:32.354Z,101849.99
2023-01-25T13:41:18.018Z,101841.11
2023-01-25T13:44:19.978Z,101840.79
2023-01-25T13:47:06.889Z,101837.34
2023-01-25T13:49:54.673Z,101840.31
2023-01-25T13:52:55.830Z,101840.14
2023-01-25T13:55:52.379Z,101837.54
2023-01-25T13:58:45.298Z,101838.73
2023-01-25T14:01:31.891Z,101835.52
2023-01-25T14:04:17.512Z,101834.27
2023-01-25T14:07:09.210Z,101836.20
2023-01-25T14:09:55.692Z,101830.31
2023-01-25T14:12:42.493Z,101825.58
2023-01-25T14:15:32.221Z,101821.14
2023-01-25T14:18:18.731Z,101822.81
2023-01-25T14:21:15.848Z,101820.60
2023-01-25T14:24:10.870Z,101820.33
2023-01-25T14:26:55.952Z,101815.67
2023-01-25T14:29:46.348Z,101806.98
2023-01-25T14:32:32.059Z,101804.42
2023-01-25T14:35:42.249Z,101801.39
2023-01-25T14:38:36.540Z,101795.55
2023-01-25T14:41:35.503Z,101788.77
2023-01-25T14:44:20.744Z,101787.14
2023-01-25T14:47:22.208Z,101785.39
2023-01-25T14:50:36.045Z,101777.17
2023-01-25T14:53:21.868Z,101772.98
2023-01-25T14:56:28.384Z,101765.08
2023-01-25T14:59:30.057Z,101755.83
2023-01-25T15:02:20.800Z,101752.37
2023-01-25T15:05:16.066Z,101754.56
2023-01-25T15:08:07.854Z,101751.67
2023-01-25T15:10:54.912Z,101745.16
2023-01-25T15:13:40.086Z,101739.79
2023-01-25T15:16:34.797Z,101735.46
2023-01-25T15:19:29.887Z,101730.54
2023-01-25T15:22:14.979Z,101725.44
2023-01-25T15:24:59.998Z,101728.42
2023-01-25T15:27:46.195Z,101722.33
2023-01-25T15:30:32.104Z,101721.41
2023-01-25T15:33:23.217Z,101718.91
2023-01-25T15:36:09.042Z,101720.98
2023-01-25T15:38:54.231Z,101714.89
2023-01-25T15:41:39.420Z,101717.36
2023-01-25T15:44:24.656Z,101711.36
2023-01-25T15:47:10.354Z,101708.70
2023-01-25T15:49:55.589Z,101711.79
2023-01-25T15:52:40.538Z,101708.54
2023-01-25T15:55:25.422Z,101700.53
2023-01-25T15:58:15.985Z,101696.15
2023-01-25T16:01:01.463Z,101692.23
2023-01-25T16:03:46.522Z,101690.80
2023-01-25T16:06:31.296Z,101681.13
2023-01-25T16:09:21.688Z,101679.84
2023-01-25T16:12:08.027Z,101674.83
2023-01-25T16:14:52.979Z,101670.84
2023-01-25T16:17:37.947Z,101666.19
2023-01-25T16:20:22.882Z,101668.59
2023-01-25T16:23:07.937Z,101665.02
2023-01-25T16:25:52.838Z,101664.12
2023-01-25T16:28:37.856Z,101657.27
2023-01-25T16:31:32.370Z,101654.94
2023-01-25T16:34:19.737Z,101657.18
2023-01-25T16:37:05.071Z,101649.80
2023-01-25T16:39:51.936Z,101646.23
2023-01-25T16:42:36.964Z,101645.36
2023-01-25T16:45:23.560Z,101649.15
2023-01-25T16:48:14.982Z,101645.45
2023-01-25T16:51:01.837Z,101649.69
2023-01-25T16:53:48.290Z,101641.31
2023-01-25T16:56:33.448Z,101639.80
2023-01-25T16:59:19.036Z,101631.55
2023-01-25T17:02:04.285Z,101627.83
2023-01-25T17:04:49.593Z,101625.66
2023-01-25T17:07:54.896Z,101623.52
2023-01-25T17:10:40.171Z,101629.71
2023-01-25T17:13:25.068Z,101621.05
2023-01-25T17:16:09.904Z,101618.43
2023-01-25T17:19:05.883Z,101615.12
2023-01-25T17:21:51.184Z,101609.20
2023-01-25T17:24:36.755Z,101609.73
2023-01-25T17:27:22.646Z,101600.27
2023-01-25T17:30:08.716Z,101595.60
2023-01-25T17:32:55.214Z,101589.96
2023-01-25T17:35:40.395Z,101588.02
2023-01-25T17:38:25.585Z,101585.41
2023-01-25T17:41:11.338Z,101590.45
2023-01-25T17:43:57.031Z,101589.88
2023-01-25T17:46:42.106Z,101589.35
2023-01-25T17:49:27.975Z,101588.76
2023-01-25T17:52:13.247Z,101588.88
2023-01-25T17:54:59.750Z,101587.83
2023-01-25T17:57:45.797Z,101577.17
2023-01-25T18:00:31.349Z,101574.39
2023-01-25T18:03:16.221Z,101568.25
2023-01-25T18:06:07.277Z,101565.23
2023-01-25T18:08:55.585Z,101556.79
2023-01-25T18:11:40.508Z,101564.85
2023-01-25T18:14:25.592Z,101561.73
2023-01-25T18:17:11.371Z,101562.61
2023-01-25T18:19:56.347Z,101552.36
2023-01-25T18:22:44.136Z,101553.44
2023-01-25T18:25:35.844Z,101551.22
2023-01-25T18:28:20.981Z,101548.41
2023-01-25T18:31:06.383Z,101547.76
2023-01-25T18:33:51.125Z,101545.81
2023-01-25T18:36:36.187Z,101544.63
2023-01-25T18:39:21.121Z,101540.39
2023-01-25T18:42:06.239Z,101538.40
2023-01-25T18:44:51.366Z,101535.42
2023-01-25T18:47:36.318Z,101534.02
2023-01-25T18:50:21.289Z,101533.63
2023-01-25T18:53:08.425Z,101527.50
2023-01-25T18:56:24.949Z,101522.23
2023-01-25T18:59:09.955Z,101518.20
2023-01-25T19:01:55.269Z,101508.23
2023-01-25T19:04:40.844Z,101507.05
2023-01-25T19:07:25.851Z,101508.27
2023-01-25T19:10:11.039Z,101507.35
2023-01-25T19:12:56.387Z,101504.19
2023-01-25T19:15:41.429Z,101498.95
2023-01-25T19:18:31.469Z,101502.68
2023-01-25T19:21:18.025Z,101494.95
2023-01-25T19:24:03.548Z,101491.09
2023-01-25T19:26:48.930Z,101489.30
2023-01-25T19:29:33.933Z,101483.11
2023-01-25T19:32:18.766Z,101482.27
2023-01-25T19:35:05.657Z,101473.79
2023-01-25T19:37:50.899Z,101473.13
2023-01-25T19:40:35.851Z,101473.64
2023-01-25T19:43:20.777Z,101472.14
2023-01-25T19:46:10.891Z,101472.45
2023-01-25T19:48:57.309Z,101472.25
2023-01-25T19:51:44.888Z,101473.81
2023-01-25T19:54:30.087Z,101468.70
2023-01-25T19:57:16.650Z,101459.25
2023-01-25T20:00:01.402Z,101459.77
2023-01-25T20:02:46.508Z,101456.81
2023-01-25T20:05:31.385Z,101454.58
2023-01-25T20:08:16.299Z,101454.20
2023-01-25T20:11:12.081Z,101450.52
2023-01-25T20:14:00.104Z,101441.94
2023-01-25T20:16:46.370Z,101438.55
2023-01-25T20:19:34.471Z,101432.02
2023-01-25T20:22:19.543Z,101421.27
2023-01-25T20:25:05.028Z,101423.19
2023-01-25T20:27:51.181Z,101422.09
2023-01-25T20:30:36.694Z,101418.95
2023-01-25T20:33:21.879Z,101413.52
2023-01-25T20:36:07.358Z,101411.09
2023-01-25T20:38:52.621Z,101406.89
2023-01-25T20:41:37.554Z,101395.99
2023-01-25T20:44:22.634Z,101396.70
2023-01-25T20:47:07.609Z,101397.17
2023-01-25T20:49:52.628Z,101398.16
2023-01-25T20:52:37.624Z,101397.37
2023-01-25T20:55:22.632Z,101392.93
2023-01-25T20:58:07.560Z,101384.45
2023-01-25T21:00:53.248Z,101387.59
2023-01-25T21:03:38.553Z,101382.16
2023-01-25T21:06:25.232Z,101385.89
2023-01-25T21:09:11.460Z,101381.05
2023-01-25T21:11:56.433Z,101375.41
2023-01-25T21:14:41.261Z,101371.73
2023-01-25T21:17:26.285Z,101365.05
2023-01-25T21:20:11.454Z,101366.11
2023-01-25T21:22:56.627Z,101367.16
2023-01-25T21:25:41.763Z,101367.17
2023-01-25T21:28:27.024Z,101363.20
2023-01-25T21:31:19.194Z,101358.14
2023-01-25T21:34:05.462Z,101360.45
2023-01-25T21:36:50.954Z,101361.08
2023-01-25T21:39:35.900Z,101357.11
2023-01-25T21:42:20.759Z,101356.96
2023-01-25T21:45:24.735Z,101359.90
2023-01-25T21:48:10.180Z,101357.25
2023-01-25T21:51:16.096Z,101356.14
2023-01-25T21:54:01.535Z,101358.35
2023-01-25T21:56:48.193Z,101356.38
2023-01-25T21:59:35.915Z,101353.24
2023-01-25T22:02:20.880Z,101352.50
2023-01-25T22:05:06.088Z,101350.91
2023-01-25T22:07:51.206Z,101352.66
2023-01-25T22:10:36.159Z,101351.84
2023-01-25T22:13:20.766Z,101342.48
2023-01-25T22:16:07.343Z,101338.81
2023-01-25T22:18:52.307Z,101339.02
2023-01-25T22:21:37.125Z,101333.46
2023-01-25T22:24:22.172Z,101330.21
2023-01-25T22:27:16.150Z,101323.69
2023-01-25T22:30:01.007Z,101319.07
2023-01-25T22:32:45.979Z,101317.75
2023-01-25T22:35:30.838Z,101321.05
2023-01-25T22:38:15.916Z,101314.75
2023-01-25T22:41:12.178Z,101310.23
2023-01-25T22:43:57.399Z,101298.95
2023-01-25T22:46:42.279Z,101297.51
2023-01-25T22:49:27.265Z,101295.20
2023-01-25T22:52:12.189Z,101291.71
2023-01-25T22:54:57.289Z,101291.59
2023-01-25T22:57:42.106Z,101291.91
2023-01-25T23:00:26.912Z,101286.52
2023-01-25T23:03:12.178Z,101284.25
2023-01-25T23:06:01.726Z,101274.30
2023-01-25T23:08:47.696Z,101276.11
2023-01-25T23:11:36.230Z,101268.07
2023-01-25T23:14:39.791Z,101263.52
2023-01-25T23:17:43.151Z,101258.98
2023-01-25T23:20:31.811Z,101255.96
2023-01-25T23:23:16.872Z,101252.23
2023-01-25T23:26:01.767Z,101250.98
2023-01-25T23:28:51.362Z,101246.54
2023-01-25T23:31:36.501Z,101242.57
2023-01-25T23:34:21.618Z,101239.21
2023-01-25T23:37:07.001Z,101233.30
2023-01-25T23:39:52.319Z,101230.58
2023-01-25T23:42:38.030Z,101236.84
2023-01-25T23:45:23.084Z,101234.58
2023-01-25T23:48:07.860Z,101234.27
2023-01-25T23:50:53.730Z,101234.86
2023-01-25T23:53:39.263Z,101232.77
2023-01-25T23:56:24.343Z,101227.29
2023-01-25T23:59:09.159Z,101222.54
